Terminal Aerodrome Forecast
Issued by NWS Shreveport, LA

Home | Current Version | Previous Version | Text Only | Print | Product List | Glossary On
Versions: 1 2 3 4 5 6 7 8 9 10 11 12 13 14 15 16 17 18 19 20
000
FTUS44 KSHV 042300
TAFMLU
TAF
KMLU 042340Z 0500/0524 36016G28KT P6SM -RA OVC012
      TEMPO 0500/0503 01012KT TSRA BKN040CB OVC100
     FM051300 01014G22KT 5SM -FZRA BR OVC007
     FM051800 03012G20KT P6SM BKN025=

USA.gov is the U.S. government's official web portal to all federal, state and local government web resources and services.